Time;durP1;ratioP1;P1;durP2;ratioP2;P2;SDS_P1;SDS_P2;PMS_P1;PMS_P2;Temp;Humidity;BMP_temperature;BMP_pressure;BME280_temperature;BME280_humidity;BME280_pressure;Samples;Min_cycle;Max_cycle;Signal;HPM_P1;HPM_P2
2023/06/28 00:01:00;;;;;;;13.98;6.00;;;15.50;99.90;;;;;;5120183;27;20054;-38
2023/06/28 00:03:28;;;;;;;7.82;5.70;;;15.40;99.90;;;;;;5119230;27;20051;-38
2023/06/28 00:05:54;;;;;;;9.93;5.70;;;15.30;99.90;;;;;;5120423;27;20050;-38
2023/06/28 00:08:21;;;;;;;11.02;5.75;;;15.20;99.90;;;;;;5120202;27;20074;-38
2023/06/28 00:10:46;;;;;;;11.73;5.63;;;15.20;99.90;;;;;;5121353;27;20047;-39
2023/06/28 00:13:12;;;;;;;13.23;6.72;;;15.10;99.90;;;;;;5115252;27;20054;-38
2023/06/28 00:15:38;;;;;;;13.02;6.50;;;15.10;99.90;;;;;;5117155;27;20524;-38
2023/06/28 00:18:03;;;;;;;9.90;6.47;;;15.10;99.90;;;;;;5116575;27;20055;-38
2023/06/28 00:20:30;;;;;;;12.43;6.90;;;15.10;99.90;;;;;;5116843;27;20222;-38
2023/06/28 00:22:55;;;;;;;16.75;6.72;;;15.00;99.90;;;;;;5116746;27;20491;-38
2023/06/28 00:25:21;;;;;;;11.48;6.90;;;15.00;99.90;;;;;;5117413;27;20046;-38
2023/06/28 00:27:47;;;;;;;11.05;7.47;;;15.00;99.90;;;;;;5116903;27;20039;-38
2023/06/28 00:30:13;;;;;;;9.38;6.25;;;15.00;99.90;;;;;;5116589;27;20078;-38
2023/06/28 00:32:39;;;;;;;9.95;6.82;;;15.00;99.90;;;;;;5083448;27;20063;-38
2023/06/28 00:35:05;;;;;;;11.88;7.18;;;14.90;99.90;;;;;;5104998;27;20437;-38
2023/06/28 00:37:32;;;;;;;8.05;6.28;;;14.90;99.90;;;;;;5110347;27;20055;-38
2023/06/28 00:39:58;;;;;;;11.32;6.50;;;14.90;99.90;;;;;;5079434;27;20575;-38
2023/06/28 00:42:23;;;;;;;14.23;6.78;;;14.90;99.90;;;;;;5132672;27;20051;-38
2023/06/28 00:44:49;;;;;;;12.02;6.57;;;14.90;99.90;;;;;;5118082;27;20047;-38
2023/06/28 00:47:15;;;;;;;12.73;6.47;;;14.80;99.90;;;;;;5116376;27;20047;-38
2023/06/28 00:49:42;;;;;;;11.07;6.45;;;14.80;99.90;;;;;;5117178;27;20530;-38
2023/06/28 00:52:09;;;;;;;12.80;6.63;;;14.80;99.90;;;;;;5116498;27;20235;-38
2023/06/28 00:54:35;;;;;;;12.57;6.90;;;14.80;99.90;;;;;;5098271;27;20118;-38
2023/06/28 00:57:01;;;;;;;10.55;6.95;;;14.80;99.90;;;;;;5121947;27;20449;-38
2023/06/28 00:59:27;;;;;;;13.98;6.05;;;14.80;99.90;;;;;;5124190;27;20618;-38
2023/06/28 01:01:54;;;;;;;9.55;5.80;;;14.80;99.90;;;;;;5115275;27;20083;-38
2023/06/28 01:04:20;;;;;;;9.55;6.57;;;14.80;99.90;;;;;;5116388;27;20047;-38
2023/06/28 01:06:53;;;;;;;9.23;5.70;;;14.80;99.90;;;;;;5098677;27;20058;-38
2023/06/28 01:09:20;;;;;;;10.95;6.13;;;14.80;99.90;;;;;;5116781;27;20039;-38
2023/06/28 01:11:47;;;;;;;8.98;5.78;;;14.90;99.90;;;;;;5116075;27;20149;-38
2023/06/28 01:14:13;;;;;;;11.50;5.78;;;14.90;99.90;;;;;;5115762;27;20047;-38
2023/06/28 01:16:39;;;;;;;9.88;6.10;;;14.90;99.90;;;;;;5116401;27;20078;-38
2023/06/28 01:19:07;;;;;;;11.38;6.05;;;15.00;99.90;;;;;;5080412;27;20478;-38
2023/06/28 01:21:38;;;;;;;8.57;6.03;;;15.00;99.90;;;;;;5115178;27;20055;-38
2023/06/28 01:24:04;;;;;;;11.95;6.30;;;15.00;99.90;;;;;;5115065;27;20078;-38
2023/06/28 01:26:30;;;;;;;8.23;5.10;;;15.00;99.90;;;;;;5096704;27;20350;-39
2023/06/28 01:28:56;;;;;;;9.25;6.07;;;15.00;99.90;;;;;;5114910;27;20039;-38
2023/06/28 01:31:22;;;;;;;10.05;5.57;;;15.00;99.90;;;;;;5115705;27;20054;-38
2023/06/28 01:33:48;;;;;;;10.40;5.35;;;15.10;99.90;;;;;;5115770;27;20051;-38
2023/06/28 01:36:14;;;;;;;8.02;5.25;;;15.20;99.90;;;;;;5109258;27;20546;-38
2023/06/28 01:38:41;;;;;;;7.55;4.68;;;15.20;99.90;;;;;;5107829;27;20043;-38
2023/06/28 01:41:08;;;;;;;7.70;4.50;;;15.20;99.90;;;;;;5102711;27;20069;-39
2023/06/28 01:43:34;;;;;;;9.80;4.35;;;15.30;99.90;;;;;;5105656;27;20100;-38
2023/06/28 01:46:00;;;;;;;7.20;3.92;;;15.40;99.90;;;;;;5115750;27;20073;-39
2023/06/28 01:48:27;;;;;;;8.60;3.97;;;15.40;99.90;;;;;;5115394;27;20074;-38
2023/06/28 01:50:53;;;;;;;9.30;4.55;;;15.40;99.90;;;;;;5115520;27;20580;-38
2023/06/28 01:53:18;;;;;;;9.18;3.85;;;15.50;99.90;;;;;;5115171;27;20054;-38
2023/06/28 01:55:44;;;;;;;9.85;4.30;;;15.50;99.90;;;;;;5115399;27;20047;-38
2023/06/28 01:58:10;;;;;;;5.18;3.55;;;15.50;99.90;;;;;;5114136;27;20490;-38
2023/06/28 02:00:36;;;;;;;6.90;3.67;;;15.50;99.90;;;;;;5114923;27;20046;-38
2023/06/28 02:03:02;;;;;;;7.68;2.90;;;15.60;99.90;;;;;;5079117;27;20089;-38
2023/06/28 02:05:27;;;;;;;6.30;2.70;;;15.60;99.90;;;;;;5114806;27;20457;-39
2023/06/28 02:07:53;;;;;;;7.50;2.95;;;15.60;99.90;;;;;;5109743;27;20043;-38
2023/06/28 02:10:23;;;;;;;8.05;2.95;;;15.70;99.90;;;;;;5115635;27;20047;-38
2023/06/28 02:12:49;;;;;;;5.10;2.50;;;15.70;99.90;;;;;;5115491;27;20047;-38
2023/06/28 02:15:14;;;;;;;6.15;2.40;;;15.70;99.90;;;;;;5115599;27;20486;-38
2023/06/28 02:17:40;;;;;;;5.35;2.50;;;15.80;99.90;;;;;;5114437;27;20039;-38
2023/06/28 02:20:10;;;;;;;6.85;2.83;;;15.80;99.90;;;;;;5079338;27;20047;-38
2023/06/28 02:22:37;;;;;;;6.97;2.60;;;15.80;99.90;;;;;;5095221;27;20099;-38
2023/06/28 02:25:03;;;;;;;6.70;3.00;;;15.80;99.90;;;;;;5096254;27;20529;-38
2023/06/28 02:27:28;;;;;;;6.50;2.90;;;15.80;99.90;;;;;;5114510;27;20058;-38
2023/06/28 02:29:56;;;;;;;6.85;2.75;;;15.80;99.90;;;;;;5096404;27;20054;-38
2023/06/28 02:32:22;;;;;;;5.75;2.60;;;15.80;99.90;;;;;;5095547;27;20067;-38
2023/06/28 02:34:48;;;;;;;6.65;2.70;;;15.80;99.90;;;;;;5105703;27;20035;-39
2023/06/28 02:37:13;;;;;;;5.88;2.47;;;15.80;99.90;;;;;;5120238;27;20380;-38
2023/06/28 02:39:39;;;;;;;7.68;2.58;;;15.70;99.90;;;;;;5094246;27;20303;-38
2023/06/28 02:42:05;;;;;;;4.00;2.38;;;15.70;99.90;;;;;;5124747;27;20047;-38
2023/06/28 02:44:31;;;;;;;6.60;2.60;;;15.70;99.90;;;;;;5099602;27;20526;-38
2023/06/28 02:46:56;;;;;;;5.20;2.50;;;15.70;99.90;;;;;;5131251;27;20288;-38
2023/06/28 02:49:23;;;;;;;6.05;3.05;;;15.70;99.90;;;;;;5123728;27;20528;-38
2023/06/28 02:51:49;;;;;;;6.10;3.08;;;15.70;99.90;;;;;;5132315;27;20458;-38
2023/06/28 02:54:14;;;;;;;8.38;2.90;;;15.70;99.90;;;;;;5114288;27;20047;-40
2023/06/28 02:56:40;;;;;;;6.32;2.92;;;15.60;99.90;;;;;;5113849;27;20055;-38
2023/06/28 02:59:05;;;;;;;7.05;2.92;;;15.60;99.90;;;;;;5113510;27;20092;-39
2023/06/28 03:01:31;;;;;;;6.53;2.85;;;15.60;99.90;;;;;;5112651;27;20047;-38
2023/06/28 03:03:57;;;;;;;6.63;2.92;;;15.50;99.90;;;;;;5114391;27;20379;-38
2023/06/28 03:06:22;;;;;;;5.32;2.55;;;15.60;99.90;;;;;;5114029;27;20043;-38
2023/06/28 03:08:48;;;;;;;5.72;3.10;;;15.50;99.90;;;;;;5113898;27;20051;-38
2023/06/28 03:11:13;;;;;;;5.22;3.05;;;15.50;99.90;;;;;;5113354;27;20047;-38
2023/06/28 03:13:40;;;;;;;9.52;3.28;;;15.50;99.90;;;;;;5114084;27;20073;-38
2023/06/28 03:16:06;;;;;;;8.38;3.67;;;15.50;99.90;;;;;;5116247;27;20085;-39
2023/06/28 03:18:31;;;;;;;9.57;3.42;;;15.40;99.90;;;;;;5134315;27;20078;-38
2023/06/28 03:20:57;;;;;;;6.68;3.10;;;15.40;99.90;;;;;;5087676;27;20584;-38
2023/06/28 03:23:23;;;;;;;7.10;3.20;;;15.40;99.90;;;;;;5124320;27;20442;-38
2023/06/28 03:25:49;;;;;;;5.85;3.13;;;15.40;99.90;;;;;;5095934;27;20055;-38
2023/06/28 03:28:16;;;;;;;9.32;3.50;;;15.30;99.90;;;;;;5114591;27;20073;-38
2023/06/28 03:30:41;;;;;;;6.82;3.72;;;15.30;99.90;;;;;;5114099;27;20385;-38
2023/06/28 03:33:07;;;;;;;5.40;3.15;;;15.30;99.90;;;;;;5094619;28;20130;-38
2023/06/28 03:35:33;;;;;;;6.95;3.65;;;15.30;99.90;;;;;;5099014;27;20073;-38
2023/06/28 03:37:58;;;;;;;7.07;3.80;;;15.30;99.90;;;;;;5105579;27;20083;-38
2023/06/28 03:40:24;;;;;;;5.30;3.58;;;15.30;99.90;;;;;;5094997;27;20055;-38
2023/06/28 03:42:50;;;;;;;6.82;3.90;;;15.30;99.90;;;;;;5110821;27;20051;-38
2023/06/28 03:45:16;;;;;;;7.88;3.90;;;15.30;99.90;;;;;;5105267;27;20054;-38
2023/06/28 03:47:41;;;;;;;8.38;4.10;;;15.30;99.90;;;;;;5135618;27;20042;-38
2023/06/28 03:50:08;;;;;;;6.90;3.70;;;15.30;99.90;;;;;;5138775;27;20495;-38
2023/06/28 03:52:35;;;;;;;5.70;3.85;;;15.30;99.90;;;;;;5137286;27;20046;-38
2023/06/28 03:55:00;;;;;;;7.97;4.18;;;15.30;99.90;;;;;;5124255;27;20047;-38
2023/06/28 03:57:26;;;;;;;6.63;5.18;;;15.30;99.90;;;;;;5137016;27;20050;-38
2023/06/28 03:59:52;;;;;;;8.15;5.20;;;15.30;99.90;;;;;;5137797;27;20058;-38
2023/06/28 04:02:18;;;;;;;9.68;5.13;;;15.30;99.90;;;;;;5137350;27;20092;-38
2023/06/28 04:04:43;;;;;;;6.97;5.32;;;15.30;99.90;;;;;;5138052;27;20512;-38
2023/06/28 04:07:09;;;;;;;7.03;5.47;;;15.30;99.90;;;;;;5137198;27;20412;-38
2023/06/28 04:09:35;;;;;;;10.00;5.55;;;15.30;99.90;;;;;;5137720;27;20450;-38
2023/06/28 04:12:00;;;;;;;7.95;5.90;;;15.30;99.90;;;;;;5118379;27;20804;-38
2023/06/28 04:14:26;;;;;;;8.95;6.45;;;15.30;99.90;;;;;;5137831;27;20161;-38
2023/06/28 04:16:52;;;;;;;9.70;6.20;;;15.30;99.90;;;;;;5137087;27;20047;-39
2023/06/28 04:19:18;;;;;;;10.13;6.85;;;15.30;99.90;;;;;;5137882;27;20046;-38
2023/06/28 04:21:44;;;;;;;7.97;5.80;;;15.30;99.90;;;;;;5137272;27;20054;-38
2023/06/28 04:24:10;;;;;;;9.68;6.50;;;15.30;99.90;;;;;;5138396;27;20480;-38
2023/06/28 04:26:36;;;;;;;7.47;6.68;;;15.40;99.90;;;;;;5128232;27;20054;-39
2023/06/28 04:29:02;;;;;;;10.25;6.30;;;15.40;99.90;;;;;;5131996;27;20069;-39
2023/06/28 04:31:27;;;;;;;12.00;6.60;;;15.40;99.90;;;;;;5117348;27;20051;-38
2023/06/28 04:33:56;;;;;;;8.93;6.03;;;15.50;99.90;;;;;;5109395;27;20443;-38
2023/06/28 04:36:23;;;;;;;7.78;6.43;;;15.50;99.90;;;;;;5094931;27;20057;-38
2023/06/28 04:38:52;;;;;;;9.98;6.50;;;15.50;99.90;;;;;;5088702;27;20749;-38
2023/06/28 04:41:28;;;;;;;9.45;7.05;;;15.50;99.90;;;;;;5105622;27;20087;-38
2023/06/28 04:43:55;;;;;;;8.88;6.82;;;15.50;99.90;;;;;;5107459;27;20047;-38
2023/06/28 04:46:28;;;;;;;8.88;7.25;;;15.60;99.90;;;;;;5116673;27;20602;-38
2023/06/28 04:48:56;;;;;;;11.35;7.40;;;15.50;99.90;;;;;;5115289;27;20047;-38
2023/06/28 04:51:22;;;;;;;10.50;7.03;;;15.50;99.90;;;;;;5115318;27;20047;-39
2023/06/28 04:53:49;;;;;;;11.68;7.68;;;15.50;99.90;;;;;;5116024;27;20277;-38
2023/06/28 04:56:15;;;;;;;10.07;7.50;;;15.40;99.90;;;;;;5116314;27;20050;-38
2023/06/28 04:58:41;;;;;;;9.68;6.78;;;15.40;99.90;;;;;;5114336;27;20050;-38
2023/06/28 05:01:08;;;;;;;12.10;7.10;;;15.40;99.90;;;;;;5097285;27;20055;-38
2023/06/28 05:03:35;;;;;;;9.70;6.38;;;15.40;99.90;;;;;;5115634;27;20153;-38
2023/06/28 05:06:02;;;;;;;12.43;7.18;;;15.40;99.90;;;;;;5116647;27;20059;-38
2023/06/28 05:08:28;;;;;;;13.18;6.78;;;15.40;99.90;;;;;;5115363;27;20035;-38
2023/06/28 05:10:54;;;;;;;18.27;7.63;;;15.40;99.90;;;;;;5097656;27;20583;-38
2023/06/28 05:13:21;;;;;;;11.50;7.65;;;15.30;99.90;;;;;;5115354;27;20074;-38
2023/06/28 05:15:46;;;;;;;18.05;9.00;;;15.30;99.90;;;;;;5116623;27;20039;-37
2023/06/28 05:18:12;;;;;;;14.32;8.32;;;15.30;99.90;;;;;;5115335;27;20058;-38
2023/06/28 05:20:38;;;;;;;15.68;8.40;;;15.20;99.90;;;;;;5116540;27;20166;-38
2023/06/28 05:23:15;;;;;;;14.93;8.38;;;15.20;99.90;;;;;;5115653;27;20248;-38
2023/06/28 05:25:42;;;;;;;16.17;8.55;;;15.20;99.90;;;;;;5097198;27;20369;-38
2023/06/28 05:28:10;;;;;;;13.57;9.05;;;15.20;99.90;;;;;;5115490;27;20176;-37
2023/06/28 05:30:35;;;;;;;13.85;8.55;;;15.20;99.90;;;;;;5115788;27;20100;-38
2023/06/28 05:33:02;;;;;;;13.23;8.18;;;15.30;99.90;;;;;;5115210;27;20059;-37
2023/06/28 05:35:32;;;;;;;13.90;9.10;;;15.30;99.90;;;;;;5100213;27;20083;-38
2023/06/28 05:38:02;;;;;;;15.32;9.38;;;15.30;99.90;;;;;;5107146;27;20039;-37
2023/06/28 05:40:29;;;;;;;15.10;9.40;;;15.30;99.90;;;;;;5063512;27;20048;-38
2023/06/28 05:42:55;;;;;;;17.02;9.35;;;15.30;99.90;;;;;;5109338;27;20220;-38
2023/06/28 05:45:24;;;;;;;15.07;9.68;;;15.30;99.90;;;;;;5126893;27;20046;-38
2023/06/28 05:47:50;;;;;;;14.48;9.20;;;15.30;99.90;;;;;;5135902;27;20050;-38
2023/06/28 05:50:16;;;;;;;13.38;8.52;;;15.20;99.90;;;;;;5135724;27;20054;-38
2023/06/28 05:52:43;;;;;;;17.80;9.65;;;15.20;99.90;;;;;;5098990;27;20050;-38
2023/06/28 05:55:09;;;;;;;20.10;8.80;;;15.20;99.90;;;;;;5135750;27;20058;-38
2023/06/28 05:57:35;;;;;;;14.70;8.68;;;15.20;99.90;;;;;;5135095;27;20046;-38
2023/06/28 06:00:03;;;;;;;14.82;8.75;;;15.20;99.90;;;;;;5135995;27;20038;-38
2023/06/28 06:02:29;;;;;;;11.20;9.32;;;15.20;99.90;;;;;;5124390;27;20051;-38
2023/06/28 06:04:55;;;;;;;14.70;8.65;;;15.10;99.90;;;;;;5115051;27;20523;-37
2023/06/28 06:07:20;;;;;;;15.48;9.10;;;15.20;99.90;;;;;;5115705;27;20409;-37
2023/06/28 06:09:46;;;;;;;18.27;9.48;;;15.10;99.90;;;;;;5114427;27;20462;-38
2023/06/28 06:12:12;;;;;;;16.25;9.68;;;15.10;99.90;;;;;;5113887;27;20047;-38
2023/06/28 06:14:37;;;;;;;15.25;8.98;;;15.20;99.90;;;;;;5096242;27;20051;-37
2023/06/28 06:17:03;;;;;;;17.73;9.68;;;15.20;99.90;;;;;;5095570;27;20051;-38
2023/06/28 06:19:29;;;;;;;14.90;9.88;;;15.20;99.90;;;;;;5114299;27;20435;-37
2023/06/28 06:21:54;;;;;;;14.52;9.18;;;15.20;99.90;;;;;;5114888;27;20399;-38
2023/06/28 06:24:20;;;;;;;14.82;9.88;;;15.10;99.90;;;;;;5114855;27;20051;-38
2023/06/28 06:26:46;;;;;;;18.30;8.93;;;15.10;99.90;;;;;;5095877;27;20039;-38
2023/06/28 06:29:11;;;;;;;13.35;8.95;;;15.10;99.90;;;;;;5114578;27;20278;-38
2023/06/28 06:31:37;;;;;;;14.70;9.18;;;15.20;99.90;;;;;;5114141;27;20471;-38
2023/06/28 06:34:03;;;;;;;12.75;8.82;;;15.20;99.90;;;;;;5110816;27;20044;-38
2023/06/28 06:36:29;;;;;;;14.20;9.07;;;15.20;99.90;;;;;;5105155;27;20052;-38
2023/06/28 06:38:56;;;;;;;12.90;8.85;;;15.30;99.90;;;;;;5093156;27;20061;-38
2023/06/28 06:41:22;;;;;;;13.98;9.25;;;15.30;99.90;;;;;;5096254;27;20065;-38
2023/06/28 06:43:49;;;;;;;12.07;8.35;;;15.40;99.90;;;;;;5106592;27;20852;-38
2023/06/28 06:46:15;;;;;;;15.52;9.07;;;15.50;99.90;;;;;;5113924;27;20050;-37
2023/06/28 06:48:40;;;;;;;16.02;8.57;;;15.50;99.90;;;;;;5113070;27;20171;-38
2023/06/28 06:51:07;;;;;;;13.00;8.70;;;15.50;99.90;;;;;;5074209;28;20051;-38
2023/06/28 06:53:33;;;;;;;13.32;8.20;;;15.60;99.90;;;;;;5095084;27;20177;-38
2023/06/28 06:55:59;;;;;;;14.80;8.55;;;15.70;99.90;;;;;;5113675;27;20054;-38
2023/06/28 06:58:25;;;;;;;14.98;9.20;;;15.60;99.90;;;;;;5115198;27;20086;-38
2023/06/28 07:00:52;;;;;;;14.80;8.43;;;15.60;99.90;;;;;;5134290;27;20047;-37
2023/06/28 07:03:18;;;;;;;12.65;8.75;;;15.60;99.90;;;;;;5134996;27;20554;-38
2023/06/28 07:05:44;;;;;;;17.48;10.15;;;15.70;99.90;;;;;;5116327;27;20438;-38
2023/06/28 07:08:10;;;;;;;12.40;9.27;;;15.70;99.90;;;;;;5098222;27;20058;-38
2023/06/28 07:10:36;;;;;;;12.52;8.63;;;15.70;99.90;;;;;;5134711;27;20072;-38
2023/06/28 07:13:02;;;;;;;14.63;8.65;;;15.70;99.90;;;;;;5108024;27;20086;-38
2023/06/28 07:15:27;;;;;;;15.13;9.68;;;15.70;99.90;;;;;;5103898;28;20200;-38
2023/06/28 07:17:53;;;;;;;13.70;9.88;;;15.80;99.90;;;;;;5094542;28;20453;-38
2023/06/28 07:20:20;;;;;;;17.35;9.73;;;15.80;99.90;;;;;;5095919;28;20051;-38
2023/06/28 07:22:46;;;;;;;15.85;9.63;;;15.80;99.90;;;;;;5114703;27;20125;-38
2023/06/28 07:25:12;;;;;;;15.55;11.35;;;15.80;99.90;;;;;;5107336;27;20289;-38
2023/06/28 07:27:38;;;;;;;16.02;10.20;;;15.90;99.90;;;;;;5116920;27;20150;-38
2023/06/28 07:30:06;;;;;;;16.08;10.07;;;15.90;99.90;;;;;;5099158;27;20419;-38
2023/06/28 07:32:31;;;;;;;13.50;10.00;;;16.00;99.90;;;;;;5116812;27;20043;-38
2023/06/28 07:34:57;;;;;;;17.75;10.38;;;15.90;99.90;;;;;;5106062;27;20044;-38
2023/06/28 07:37:23;;;;;;;15.55;10.05;;;15.90;99.90;;;;;;5123642;27;20088;-38
2023/06/28 07:39:49;;;;;;;15.13;10.10;;;15.90;99.90;;;;;;5097031;27;20177;-38
2023/06/28 07:42:14;;;;;;;16.90;9.80;;;15.90;99.90;;;;;;5100337;27;20038;-38
2023/06/28 07:44:40;;;;;;;15.55;10.82;;;15.80;99.90;;;;;;5104146;27;20615;-38
2023/06/28 07:47:06;;;;;;;17.63;10.85;;;15.80;99.90;;;;;;5081317;27;20039;-38
2023/06/28 07:49:32;;;;;;;19.60;11.85;;;15.80;99.90;;;;;;5099515;27;20048;-38
2023/06/28 07:51:59;;;;;;;13.45;10.18;;;15.90;99.90;;;;;;5095515;27;20807;-38
2023/06/28 07:54:25;;;;;;;15.85;12.02;;;15.90;99.90;;;;;;5117711;27;20057;-38
2023/06/28 07:56:50;;;;;;;17.60;12.02;;;15.80;99.90;;;;;;5117345;27;20337;-38
2023/06/28 07:59:19;;;;;;;15.30;12.07;;;15.80;99.90;;;;;;5122749;27;20450;-38
2023/06/28 08:01:45;;;;;;;17.48;13.57;;;15.80;99.90;;;;;;5102032;27;20560;-38
2023/06/28 08:04:11;;;;;;;18.10;12.90;;;15.80;99.90;;;;;;5138028;27;20051;-38
2023/06/28 08:06:37;;;;;;;16.58;13.30;;;15.80;99.90;;;;;;5136436;27;20483;-38
2023/06/28 08:09:03;;;;;;;21.98;13.60;;;15.90;99.90;;;;;;5136399;27;20038;-38
2023/06/28 08:11:28;;;;;;;17.42;13.05;;;15.90;99.90;;;;;;5135529;27;20454;-38
2023/06/28 08:13:54;;;;;;;17.05;13.30;;;15.90;99.90;;;;;;5137760;27;20071;-38
2023/06/28 08:16:20;;;;;;;19.23;13.75;;;15.90;99.90;;;;;;5137165;27;20050;-38
2023/06/28 08:18:46;;;;;;;18.00;13.95;;;16.00;99.90;;;;;;5108261;27;20485;-38
2023/06/28 08:21:11;;;;;;;20.30;13.82;;;16.10;99.90;;;;;;5115826;27;20456;-38
2023/06/28 08:23:37;;;;;;;20.25;14.45;;;16.00;99.90;;;;;;5086101;28;20434;-38
2023/06/28 08:26:03;;;;;;;19.17;15.45;;;16.00;99.90;;;;;;5113964;27;20043;-38
2023/06/28 08:28:28;;;;;;;22.15;14.68;;;16.00;99.90;;;;;;5097975;27;20059;-38
2023/06/28 08:30:54;;;;;;;16.95;14.38;;;16.00;99.90;;;;;;5115316;27;20051;-38
2023/06/28 08:33:22;;;;;;;18.67;15.40;;;16.10;99.90;;;;;;5115378;27;20492;-38
2023/06/28 08:35:48;;;;;;;19.38;15.10;;;16.20;99.90;;;;;;5105649;27;20103;-38
2023/06/28 08:38:14;;;;;;;27.60;16.83;;;16.20;99.90;;;;;;5097429;27;20447;-38
2023/06/28 08:40:39;;;;;;;22.95;16.20;;;16.30;99.90;;;;;;5102645;27;20050;-38
2023/06/28 08:43:06;;;;;;;20.52;14.88;;;16.30;99.90;;;;;;5126294;27;20043;-38
2023/06/28 08:45:35;;;;;;;22.10;15.95;;;16.20;99.90;;;;;;5130661;27;20055;-38
2023/06/28 08:48:03;;;;;;;20.75;17.20;;;16.30;99.90;;;;;;5136893;27;20047;-38
2023/06/28 08:50:29;;;;;;;20.27;16.63;;;16.30;99.90;;;;;;5132647;27;20449;-38
2023/06/28 08:52:56;;;;;;;23.98;18.08;;;16.30;99.90;;;;;;5115942;27;20107;-38
2023/06/28 08:55:22;;;;;;;20.15;17.35;;;16.30;99.90;;;;;;5115688;27;20054;-38
2023/06/28 08:57:48;;;;;;;24.10;18.35;;;16.20;99.90;;;;;;5115774;27;20054;-38
2023/06/28 09:00:14;;;;;;;24.48;17.40;;;16.20;99.90;;;;;;5116157;27;20053;-38
2023/06/28 09:02:43;;;;;;;24.85;18.15;;;16.20;99.90;;;;;;5095736;27;20059;-38
2023/06/28 09:05:10;;;;;;;24.90;18.55;;;16.20;99.90;;;;;;5096739;27;20045;-38
2023/06/28 09:07:40;;;;;;;22.63;18.98;;;16.30;99.90;;;;;;5114923;27;20055;-38
2023/06/28 09:10:09;;;;;;;25.27;18.83;;;16.30;99.90;;;;;;5115877;27;20047;-38
2023/06/28 09:12:36;;;;;;;23.00;19.02;;;16.30;99.90;;;;;;5114871;27;20047;-38
2023/06/28 09:15:03;;;;;;;21.48;19.20;;;16.30;99.90;;;;;;5096751;27;20559;-38
2023/06/28 09:17:29;;;;;;;26.40;20.13;;;16.30;99.90;;;;;;5115148;27;20051;-38
2023/06/28 09:20:16;;;;;;;23.58;20.00;;;16.40;99.90;;;;;;5114751;27;20413;-46
2023/06/28 09:22:42;;;;;;;24.40;19.17;;;16.50;99.90;;;;;;5115276;27;20119;-38
2023/06/28 09:25:08;;;;;;;23.80;20.77;;;16.60;99.90;;;;;;5115795;27;20124;-38
2023/06/28 09:27:34;;;;;;;21.92;19.63;;;16.60;99.90;;;;;;5114870;27;20374;-38
2023/06/28 09:30:00;;;;;;;25.65;19.95;;;16.70;99.90;;;;;;5115940;27;20055;-38
2023/06/28 09:32:38;;;;;;;23.65;19.23;;;16.70;99.90;;;;;;5114474;27;20043;-39
2023/06/28 09:35:11;;;;;;;20.75;18.58;;;16.70;99.90;;;;;;5102754;27;20543;-38
2023/06/28 09:37:38;;;;;;;23.63;19.75;;;16.70;99.90;;;;;;5089048;28;20105;-38
2023/06/28 09:40:08;;;;;;;20.45;18.30;;;16.80;99.90;;;;;;5094331;27;20047;-38
2023/06/28 09:42:45;;;;;;;21.60;18.27;;;16.80;99.90;;;;;;5112190;27;20721;-38
2023/06/28 09:45:22;;;;;;;23.00;18.77;;;16.70;99.90;;;;;;5109352;27;20392;-38
2023/06/28 09:47:57;;;;;;;22.88;17.00;;;16.70;99.90;;;;;;5114167;27;20039;-38
2023/06/28 09:50:46;;;;;;;18.52;16.70;;;16.70;99.90;;;;;;5115045;27;20047;-39
2023/06/28 09:53:12;;;;;;;20.60;18.38;;;16.70;99.90;;;;;;5115167;27;20434;-38
2023/06/28 09:55:41;;;;;;;20.95;18.10;;;16.70;99.90;;;;;;5114447;27;20819;-38
2023/06/28 09:58:12;;;;;;;20.75;18.73;;;16.70;99.90;;;;;;5114665;27;20042;-39
2023/06/28 10:00:39;;;;;;;23.95;20.10;;;16.70;99.90;;;;;;5114418;27;20050;-39
2023/06/28 10:03:07;;;;;;;25.08;21.50;;;16.80;99.90;;;;;;5096159;27;20050;-39
2023/06/28 10:05:35;;;;;;;30.80;24.45;;;16.70;99.90;;;;;;5114356;27;20565;-39
2023/06/28 10:08:09;;;;;;;22.42;20.05;;;16.80;99.90;;;;;;5114107;27;20485;-39
2023/06/28 10:10:36;;;;;;;22.25;19.85;;;16.80;99.90;;;;;;5114443;27;20053;-38
2023/06/28 10:13:09;;;;;;;25.50;20.77;;;16.80;99.90;;;;;;5096399;27;20051;-38
2023/06/28 10:15:40;;;;;;;21.80;19.60;;;16.80;99.90;;;;;;5095978;27;20051;-38
2023/06/28 10:18:06;;;;;;;23.77;21.40;;;16.80;99.90;;;;;;5113270;27;20051;-39
2023/06/28 10:20:32;;;;;;;25.08;22.38;;;16.80;99.90;;;;;;5094826;27;20058;-38
2023/06/28 10:22:58;;;;;;;26.83;24.23;;;16.90;99.90;;;;;;5112479;27;20066;-39
2023/06/28 10:25:26;;;;;;;26.95;24.25;;;16.90;99.90;;;;;;5095374;27;20050;-39
2023/06/28 10:27:54;;;;;;;26.77;23.98;;;16.90;99.90;;;;;;5110872;27;20068;-38
2023/06/28 10:30:21;;;;;;;28.88;25.60;;;16.90;99.90;;;;;;5114315;27;20058;-38
2023/06/28 10:32:48;;;;;;;27.55;24.50;;;16.90;99.90;;;;;;5078700;27;20079;-39
2023/06/28 10:35:15;;;;;;;31.08;27.30;;;17.00;99.90;;;;;;5096983;27;20047;-39
2023/06/28 10:37:40;;;;;;;29.30;26.05;;;16.90;99.90;;;;;;5098349;27;20051;-39
2023/06/28 10:40:09;;;;;;;30.08;26.40;;;16.90;99.90;;;;;;5096674;27;20055;-38
2023/06/28 10:42:41;;;;;;;35.55;28.00;;;16.90;99.90;;;;;;5098592;27;20508;-39
2023/06/28 10:45:08;;;;;;;30.92;27.60;;;16.90;99.90;;;;;;5085763;28;20035;-39
2023/06/28 10:47:35;;;;;;;33.63;29.17;;;17.00;99.90;;;;;;5109489;27;20118;-39
2023/06/28 10:50:10;;;;;;;34.08;28.33;;;17.00;99.90;;;;;;5123332;27;20439;-39
2023/06/28 10:52:51;;;;;;;39.45;30.25;;;17.00;99.90;;;;;;5133932;27;20130;-39
2023/06/28 10:55:34;;;;;;;32.80;28.30;;;17.00;99.90;;;;;;5134681;27;20530;-39
2023/06/28 10:58:12;;;;;;;33.33;29.92;;;17.00;99.90;;;;;;5133851;27;20270;-39
2023/06/28 11:00:46;;;;;;;35.70;30.90;;;17.00;99.90;;;;;;5134406;27;20515;-38
2023/06/28 11:03:13;;;;;;;34.28;30.60;;;17.00;99.90;;;;;;5116064;27;20093;-39
2023/06/28 11:05:55;;;;;;;38.40;32.67;;;16.90;99.90;;;;;;5134627;27;20039;-39
2023/06/28 11:08:22;;;;;;;36.80;32.35;;;17.00;99.90;;;;;;5134490;27;20050;-39
2023/06/28 11:10:49;;;;;;;39.85;32.67;;;16.90;99.90;;;;;;5134873;27;20051;-39
2023/06/28 11:13:38;;;;;;;34.90;31.27;;;17.00;99.90;;;;;;5134638;27;20500;-39
2023/06/28 11:16:08;;;;;;;37.60;33.28;;;17.00;99.90;;;;;;5134383;27;20070;-38
2023/06/28 11:18:35;;;;;;;39.38;35.05;;;17.00;99.90;;;;;;5118533;27;20501;-39
2023/06/28 11:21:02;;;;;;;40.30;34.08;;;17.00;99.90;;;;;;5097725;27;20064;-39
2023/06/28 11:23:39;;;;;;;42.22;36.20;;;16.90;99.90;;;;;;5097271;27;20089;-39
2023/06/28 11:26:16;;;;;;;44.03;36.92;;;17.00;99.90;;;;;;5099857;27;20059;-39
2023/06/28 11:28:50;;;;;;;43.03;35.45;;;17.00;99.90;;;;;;5090089;28;20441;-39
2023/06/28 11:31:24;;;;;;;41.08;35.80;;;17.00;99.90;;;;;;5114803;27;20125;-39
2023/06/28 11:33:54;;;;;;;39.78;35.47;;;17.00;99.90;;;;;;5112039;27;20043;-38
2023/06/28 11:36:25;;;;;;;42.15;36.22;;;17.10;99.90;;;;;;5109879;27;20134;-39
2023/06/28 11:38:51;;;;;;;47.13;36.95;;;17.10;99.90;;;;;;5104597;27;20127;-39
2023/06/28 11:41:17;;;;;;;45.50;38.25;;;17.10;99.90;;;;;;5087886;27;20081;-39
2023/06/28 11:43:44;;;;;;;45.28;39.72;;;17.10;99.90;;;;;;5100511;27;20477;-39
2023/06/28 11:46:19;;;;;;;50.25;41.95;;;17.20;99.90;;;;;;5113688;27;20043;-39
2023/06/28 11:48:49;;;;;;;43.13;37.15;;;17.20;99.90;;;;;;5114324;27;20043;-39
2023/06/28 11:51:16;;;;;;;46.97;40.17;;;17.20;99.90;;;;;;5113668;27;20449;-39
2023/06/28 11:53:46;;;;;;;46.80;40.55;;;17.30;99.90;;;;;;5132471;27;20049;-39
2023/06/28 11:56:11;;;;;;;47.40;39.08;;;17.30;99.90;;;;;;5134126;27;20058;-39
2023/06/28 11:58:37;;;;;;;45.90;39.70;;;17.50;99.90;;;;;;5116195;27;20382;-39
2023/06/28 12:01:18;;;;;;;42.33;37.53;;;17.60;99.90;;;;;;5102166;28;20058;-39
2023/06/28 12:03:43;;;;;;;52.70;39.42;;;17.60;99.90;;;;;;5113884;28;20073;-38
2023/06/28 12:06:10;;;;;;;40.45;36.08;;;17.70;99.90;;;;;;5111347;27;20489;-39
2023/06/28 12:08:38;;;;;;;52.15;39.00;;;17.70;99.90;;;;;;5112576;27;20434;-38
2023/06/28 12:11:15;;;;;;;46.35;39.70;;;17.60;99.90;;;;;;5114922;27;20062;-38
2023/06/28 12:13:41;;;;;;;54.10;41.58;;;17.70;99.90;;;;;;5116440;27;20154;-39
2023/06/28 12:16:15;;;;;;;49.35;39.58;;;17.70;99.90;;;;;;5116195;27;20043;-39
2023/06/28 12:18:58;;;;;;;43.25;36.22;;;17.70;99.90;;;;;;5108520;27;20365;-39
2023/06/28 12:21:26;;;;;;;54.75;39.58;;;17.70;99.90;;;;;;5077237;28;20494;-39
2023/06/28 12:23:52;;;;;;;46.50;38.63;;;17.80;99.90;;;;;;5109331;27;20354;-39
2023/06/28 12:26:20;;;;;;;49.42;39.88;;;17.90;99.90;;;;;;5116458;27;20509;-39
2023/06/28 12:28:48;;;;;;;45.13;37.80;;;18.00;99.90;;;;;;5116185;27;20047;-39
2023/06/28 12:31:15;;;;;;;46.92;37.20;;;18.00;99.90;;;;;;5115402;27;20054;-39
2023/06/28 12:33:41;;;;;;;48.17;36.80;;;18.10;99.90;;;;;;5114659;27;20051;-39
2023/06/28 12:36:13;;;;;;;44.60;36.08;;;18.20;99.90;;;;;;5107371;27;20038;-38